Gene Autry, OK

10:32 PM CDT on May 05, 2015 (GMT -0500)
Ardmore Municipal | | Change Station
CLOSE
Current Station
Airport
Location: Ardmore,
Elevation: 761 ft
Nearby Weather Stations

Elev 761 ft 34.30 °N, 97.01 °W | Updated 17 minutes ago

Thunderstorm
Thunderstorm
68 °F
Feels Like 68 °F
N
15
Wind Variable Wind from ESE
Gusts 20 mph

Today
High -- | Low -- °F
--% Chance of Precip.
Yesterday
High -- | Low -- °F
Precip. -- in
6:34 AM 8:15 PM
Waning Gibbous, 96% visible
Pressure 29.92 in
Visibility 10.0 miles
Clouds Scattered Clouds 1800 ft
Mostly Cloudy 3300 ft
Overcast 6000 ft
Dew Point 68 °F
Humidity 99%
Rainfall 1.61 in
Snow Depth Not available.
UV 0 out of 12
Pollen 8.10 out of 12
Air Quality Not available.
Flu Activity Local Activity
METAR KADM 060315Z AUTO 12013G17KT 10SM -VCTSDZ SCT018 BKN033 OVC060 20/20 A2992 RMK AO2 LTG DSNT S THRU NW P0001 T02000198

More Conditions Fewer Conditions

Pressure 29.92 in
Visibility 10.0 miles
Clouds Scattered Clouds 1800 ft
Mostly Cloudy 3300 ft
Overcast 6000 ft
Dew Point 68 °F
Humidity 99%
Rainfall 1.61 in
Snow Depth Not available.
UV 0 out of 12
Pollen 8.10 out of 12
Air Quality Not available.
Flu Activity Local Activity
METAR KADM 060315Z AUTO 12013G17KT 10SM -VCTSDZ SCT018 BKN033 OVC060 20/20 A2992 RMK AO2 LTG DSNT S THRU NW P0001 T02000198

More Conditions Fewer Conditions

10-Day Weather Forecast

Almanac

Astronomy

May. 05, 2015 Rise Set
Actual Time
Civil Twilight
Nautical Twilight
Astronomical Twilight
Moon
Length of Visible Light
Length of Day
Tomorrow will be .
, % of the Moon is Illuminated

Today's Extremes

State Highs State Lows

Community

WunderPhotos

Upload Photos

1,819,068 photos uploaded!

WunderBlogs® & News

Nearby

Air Quality

  Air Quality AQ Index Pollutant
Not available.

Snow Depth

Station Depth Elevation

Earthquake Activity

City Distance Mag. Time & Date
Minimum magnitude displayed is 2.5.

Coastal Water Temperatures

Place Temperature

Stations

Nearby Weather Stations

Station Location Temp. Windchill Dew Point Humidity Wind Precip. Elev Updated Type